Everest, Kansas
Current Conditions -  °F | °C
As of 2:53 AM on Monday 24 Nov 2014 (Local Time) from KSTJ Reporting Station
Clear Clear  
Wind Chill: 21°   Ceiling: Unl
Heat Index: 33°   Visibility: 10mi
Dew Point: 23°   Wind: 23mph
Humidity: 66%   Direction: 320°NW
Pressure: 29.56"   Gusts: 30mph
Location:  39.68°N, 95.42°W
Report Text: KSTJ 240853Z AUTO 32020G26KT 10SM CLR 01/M05 A2956 RMK AO2 PK WND 32032/0813 SLP012 T00061050 51025
Loading
Personal Weather Stations






























Interactive Weather Map New forecast layout! Learn more

10-Day Weather Forecast

Advertisements
Track Severe Weather on mobile